createdAt,value
2023-03-04T00:00:12.695Z,13.30
2023-03-04T00:02:41.852Z,15.13
2023-03-04T00:05:11.030Z,14.27
2023-03-04T00:07:39.643Z,14.83
2023-03-04T00:10:09.922Z,15.47
2023-03-04T00:12:40.001Z,15.03
2023-03-04T00:15:10.277Z,11.63
2023-03-04T00:17:38.987Z,15.20
2023-03-04T00:20:09.908Z,14.97
2023-03-04T00:22:38.580Z,16.20
2023-03-04T00:25:08.652Z,13.30
2023-03-04T00:27:37.239Z,13.73
2023-03-04T00:30:09.368Z,14.70
2023-03-04T00:32:38.048Z,13.13
2023-03-04T00:35:08.068Z,13.60
2023-03-04T00:37:36.962Z,12.10
2023-03-04T00:40:07.467Z,15.00
2023-03-04T00:42:36.118Z,14.77
2023-03-04T00:45:07.499Z,11.43
2023-03-04T00:47:36.237Z,13.03
2023-03-04T00:50:06.043Z,13.93
2023-03-04T00:52:34.842Z,12.10
2023-03-04T00:55:03.710Z,11.97
2023-03-04T00:57:32.368Z,12.73
2023-03-04T01:00:01.668Z,13.13
2023-03-04T01:02:31.742Z,12.80
2023-03-04T01:05:00.345Z,12.97
2023-03-04T01:07:29.084Z,11.03
2023-03-04T01:09:57.679Z,13.40
2023-03-04T01:12:26.663Z,13.03
2023-03-04T01:14:55.394Z,12.30
2023-03-04T01:17:24.311Z,12.27
2023-03-04T01:19:54.381Z,13.10
2023-03-04T01:22:23.080Z,12.27
2023-03-04T01:24:51.741Z,12.27
2023-03-04T01:27:20.588Z,12.67
2023-03-04T01:29:49.319Z,11.97
2023-03-04T01:32:18.039Z,10.47
2023-03-04T01:34:46.702Z,14.37
2023-03-04T01:37:16.778Z,15.80
2023-03-04T01:39:45.565Z,15.77
2023-03-04T01:42:21.115Z,14.00
2023-03-04T01:44:50.738Z,12.03
2023-03-04T01:47:20.565Z,13.13
2023-03-04T01:49:54.822Z,13.53
2023-03-04T01:52:26.075Z,12.20
2023-03-04T01:54:55.661Z,13.23
2023-03-04T01:57:27.048Z,12.43
2023-03-04T02:00:24.458Z,13.13
2023-03-04T02:02:56.844Z,10.73
2023-03-04T02:05:25.786Z,12.50
2023-03-04T02:07:57.349Z,11.17
2023-03-04T02:10:26.601Z,12.00
2023-03-04T02:12:55.516Z,14.40
2023-03-04T02:15:25.920Z,14.23
2023-03-04T02:17:54.526Z,13.23
2023-03-04T02:20:57.077Z,13.87
2023-03-04T02:23:34.749Z,14.13
2023-03-04T02:26:17.419Z,13.87
2023-03-04T02:28:50.462Z,11.53
2023-03-04T02:31:26.592Z,14.00
2023-03-04T02:33:58.104Z,16.73
2023-03-04T02:36:30.276Z,14.70
2023-03-04T02:39:06.075Z,11.37
2023-03-04T02:41:36.803Z,14.97
2023-03-04T02:44:16.664Z,12.27
2023-03-04T02:46:45.838Z,15.10
2023-03-04T02:49:14.986Z,13.70
2023-03-04T02:51:43.711Z,14.57
2023-03-04T02:54:17.671Z,15.40
2023-03-04T02:56:48.597Z,15.97
2023-03-04T02:59:18.730Z,12.40
2023-03-04T03:01:47.928Z,14.43
2023-03-04T03:04:17.375Z,13.07
2023-03-04T03:06:46.554Z,14.03
2023-03-04T03:09:15.338Z,14.43
2023-03-04T03:11:44.081Z,13.37
2023-03-04T03:14:14.591Z,14.80
2023-03-04T03:16:43.346Z,14.43
2023-03-04T03:19:13.007Z,13.47
2023-03-04T03:21:42.238Z,15.53
2023-03-04T03:24:10.895Z,17.13
2023-03-04T03:26:40.032Z,14.57
2023-03-04T03:29:09.875Z,13.73
2023-03-04T03:31:40.040Z,14.50
2023-03-04T03:34:08.715Z,13.93
2023-03-04T03:36:37.532Z,13.40
2023-03-04T03:39:06.320Z,14.83
2023-03-04T03:41:35.012Z,16.57
2023-03-04T03:44:03.683Z,14.97
2023-03-04T03:46:32.349Z,13.60
2023-03-04T03:49:02.391Z,12.33
2023-03-04T03:51:31.084Z,15.03
2023-03-04T03:53:59.732Z,13.23
2023-03-04T03:56:28.360Z,12.53
2023-03-04T03:58:57.009Z,14.70
2023-03-04T04:01:25.629Z,12.03
2023-03-04T04:03:54.501Z,14.53
2023-03-04T04:06:24.697Z,14.77
2023-03-04T04:08:53.660Z,14.53
2023-03-04T04:11:22.482Z,15.10
2023-03-04T04:13:51.075Z,11.70
2023-03-04T04:16:19.702Z,14.60
2023-03-04T04:18:48.388Z,12.43
2023-03-04T04:21:17.175Z,13.83
2023-03-04T04:23:47.163Z,14.23
2023-03-04T04:26:15.897Z,16.63
2023-03-04T04:28:44.538Z,15.77
2023-03-04T04:31:13.141Z,12.07
2023-03-04T04:33:41.820Z,12.67
2023-03-04T04:36:14.489Z,12.33
2023-03-04T04:38:43.269Z,12.40
2023-03-04T04:41:22.940Z,13.37
2023-03-04T04:43:51.942Z,13.60
2023-03-04T04:46:21.399Z,14.33
2023-03-04T04:48:50.199Z,13.47
2023-03-04T04:51:18.811Z,16.03
2023-03-04T04:53:47.483Z,14.70
2023-03-04T04:56:20.113Z,15.63
2023-03-04T04:58:49.729Z,13.97
2023-03-04T05:01:18.707Z,13.80
2023-03-04T05:03:49.738Z,13.87
2023-03-04T05:06:18.412Z,12.83
2023-03-04T05:08:47.183Z,13.70
2023-03-04T05:11:19.507Z,12.23
2023-03-04T05:13:49.144Z,12.57
2023-03-04T05:16:18.337Z,11.93
2023-03-04T05:18:47.614Z,11.67
2023-03-04T05:21:16.694Z,15.03
2023-03-04T05:23:45.992Z,11.73
2023-03-04T05:26:19.388Z,13.57
2023-03-04T05:28:48.010Z,14.23
2023-03-04T05:31:17.966Z,14.27
2023-03-04T05:33:46.617Z,14.57
2023-03-04T05:36:15.251Z,13.43
2023-03-04T05:38:43.922Z,13.00
2023-03-04T05:41:12.610Z,13.77
2023-03-04T05:43:43.730Z,12.57
2023-03-04T05:46:16.325Z,15.07
2023-03-04T05:48:45.594Z,12.27
2023-03-04T05:51:14.195Z,12.17
2023-03-04T05:53:43.251Z,13.20
2023-03-04T05:56:13.563Z,15.60
2023-03-04T05:58:44.642Z,17.97
2023-03-04T06:01:13.394Z,21.73
2023-03-04T06:03:43.401Z,20.47
2023-03-04T06:06:12.455Z,18.07
2023-03-04T06:08:41.105Z,16.37
2023-03-04T06:11:09.799Z,17.60
2023-03-04T06:13:38.908Z,15.80
2023-03-04T06:16:09.617Z,16.50
2023-03-04T06:18:38.405Z,16.43
2023-03-04T06:21:07.479Z,17.07
2023-03-04T06:23:36.134Z,13.40
2023-03-04T06:26:05.816Z,17.57
2023-03-04T06:28:34.468Z,12.77
2023-03-04T06:31:03.052Z,16.50
2023-03-04T06:33:33.069Z,13.37
2023-03-04T06:36:01.800Z,12.63
2023-03-04T06:38:30.410Z,14.80
2023-03-04T06:41:07.711Z,15.77
2023-03-04T06:43:36.338Z,15.17
2023-03-04T06:46:05.211Z,14.87
2023-03-04T06:48:35.308Z,15.50
2023-03-04T06:51:08.554Z,15.13
2023-03-04T06:53:37.696Z,15.57
2023-03-04T06:56:07.630Z,14.67
2023-03-04T06:58:36.708Z,15.23
2023-03-04T07:01:14.255Z,16.80
2023-03-04T07:03:44.629Z,15.57
2023-03-04T07:06:15.834Z,14.03
2023-03-04T07:08:45.329Z,18.63
2023-03-04T07:11:14.259Z,20.97
2023-03-04T07:13:43.216Z,20.00
2023-03-04T07:16:14.900Z,15.13
2023-03-04T07:18:45.453Z,16.03
2023-03-04T07:21:16.276Z,18.00
2023-03-04T07:23:45.111Z,14.77
2023-03-04T07:26:14.030Z,16.23
2023-03-04T07:28:43.527Z,14.83
2023-03-04T07:31:15.063Z,15.43
2023-03-04T07:33:45.079Z,17.10
2023-03-04T07:36:14.943Z,16.60
2023-03-04T07:38:46.059Z,16.00
2023-03-04T07:41:14.895Z,18.37
2023-03-04T07:43:43.628Z,15.33
2023-03-04T07:46:12.906Z,17.67
2023-03-04T07:48:41.913Z,16.13
2023-03-04T07:51:15.312Z,17.00
2023-03-04T07:53:46.710Z,17.17
2023-03-04T07:56:19.247Z,17.10
2023-03-04T07:58:48.443Z,16.90
2023-03-04T08:01:20.072Z,14.83
2023-03-04T08:03:48.808Z,17.73
2023-03-04T08:06:21.339Z,17.03
2023-03-04T08:08:50.891Z,16.93
2023-03-04T08:11:22.184Z,19.00
2023-03-04T08:13:54.112Z,18.33
2023-03-04T08:16:25.234Z,19.40
2023-03-04T08:18:55.838Z,20.07
2023-03-04T08:21:27.876Z,18.33
2023-03-04T08:23:59.153Z,18.43
2023-03-04T08:26:31.612Z,17.13
2023-03-04T08:29:03.980Z,21.73
2023-03-04T08:31:33.640Z,14.90
2023-03-04T08:34:05.008Z,16.43
2023-03-04T08:36:35.496Z,17.47
2023-03-04T08:39:04.552Z,18.53
2023-03-04T08:41:33.908Z,17.93
2023-03-04T08:44:03.179Z,27.57
2023-03-04T08:46:32.146Z,22.77
2023-03-04T08:49:00.878Z,22.97
2023-03-04T08:51:29.872Z,20.23
2023-03-04T08:53:59.904Z,22.07
2023-03-04T08:56:28.567Z,17.67
2023-03-04T08:58:57.282Z,19.10
2023-03-04T09:01:26.011Z,18.93
2023-03-04T09:03:54.733Z,18.27
2023-03-04T09:06:23.492Z,20.63
2023-03-04T09:08:52.102Z,17.77
2023-03-04T09:11:22.129Z,16.50
2023-03-04T09:13:51.898Z,17.20
2023-03-04T09:16:20.579Z,20.63
2023-03-04T09:18:49.482Z,18.30
2023-03-04T09:21:18.335Z,17.47
2023-03-04T09:23:46.946Z,15.43
2023-03-04T09:26:24.249Z,17.40
2023-03-04T09:28:54.131Z,18.87
2023-03-04T09:31:24.301Z,17.43
2023-03-04T09:33:54.135Z,19.57
2023-03-04T09:36:23.968Z,18.00
2023-03-04T09:38:52.846Z,15.40
2023-03-04T09:41:26.819Z,14.43
2023-03-04T09:43:57.358Z,15.07
2023-03-04T09:46:34.653Z,19.67
2023-03-04T09:49:05.993Z,15.23
2023-03-04T09:51:49.721Z,16.73
2023-03-04T09:54:31.383Z,13.73
2023-03-04T09:57:19.307Z,17.27
2023-03-04T09:59:58.271Z,15.53
2023-03-04T10:02:43.765Z,18.70
2023-03-04T10:05:19.432Z,14.30
2023-03-04T10:07:56.864Z,15.17
2023-03-04T10:10:30.630Z,15.23
2023-03-04T10:13:02.416Z,13.87
2023-03-04T10:15:38.069Z,14.87
2023-03-04T10:18:20.560Z,19.03
2023-03-04T10:20:58.252Z,15.50
2023-03-04T10:23:28.799Z,16.17
2023-03-04T10:25:57.799Z,15.13
2023-03-04T10:28:31.156Z,15.83
2023-03-04T10:31:04.471Z,15.57
2023-03-04T10:33:36.320Z,16.90
2023-03-04T10:36:20.771Z,16.77
2023-03-04T10:38:49.329Z,16.70
2023-03-04T10:41:22.636Z,16.77
2023-03-04T10:44:03.983Z,15.47
2023-03-04T10:46:33.698Z,16.33
2023-03-04T10:49:02.290Z,16.77
2023-03-04T10:51:32.408Z,17.37
2023-03-04T10:54:08.528Z,12.93
2023-03-04T10:56:42.863Z,15.80
2023-03-04T10:59:35.481Z,14.50
2023-03-04T11:02:18.756Z,13.67
2023-03-04T11:04:53.689Z,12.10
2023-03-04T11:07:23.447Z,17.67
2023-03-04T11:09:52.262Z,13.63
2023-03-04T11:12:32.939Z,13.37
2023-03-04T11:15:03.589Z,13.97
2023-03-04T11:17:45.374Z,11.77
2023-03-04T11:20:21.554Z,14.40
2023-03-04T11:22:51.877Z,14.60
2023-03-04T11:25:29.411Z,14.53
2023-03-04T11:28:02.722Z,16.33
2023-03-04T11:30:42.221Z,15.57
2023-03-04T11:33:25.379Z,13.53
2023-03-04T11:36:07.831Z,13.17
2023-03-04T11:38:40.781Z,14.70
2023-03-04T11:41:16.389Z,12.03
2023-03-04T11:43:48.629Z,11.67
2023-03-04T11:46:53.664Z,12.13
2023-03-04T11:49:54.668Z,11.50
2023-03-04T11:52:42.221Z,11.83
2023-03-04T11:55:28.429Z,11.77
2023-03-04T11:58:09.007Z,13.67
2023-03-04T12:00:48.999Z,12.50
2023-03-04T12:03:39.299Z,13.47
2023-03-04T12:06:14.246Z,11.73
2023-03-04T12:09:03.541Z,14.63
2023-03-04T12:11:45.750Z,16.00
2023-03-04T12:14:29.774Z,16.07
2023-03-04T12:17:21.046Z,13.17
2023-03-04T12:20:28.691Z,14.47
2023-03-04T12:23:13.240Z,11.47
2023-03-04T12:25:46.890Z,15.67
2023-03-04T12:28:39.410Z,15.63
2023-03-04T12:31:32.298Z,19.07
2023-03-04T12:35:04.560Z,20.40
2023-03-04T12:38:14.991Z,23.00
2023-03-04T12:40:51.791Z,26.47
2023-03-04T12:43:41.885Z,27.47
2023-03-04T12:46:31.611Z,26.87
2023-03-04T12:49:22.948Z,22.57
2023-03-04T12:52:03.731Z,24.60
2023-03-04T12:54:37.204Z,22.60
2023-03-04T12:57:13.610Z,28.00
2023-03-04T12:59:50.334Z,19.73
2023-03-04T13:03:08.601Z,25.60
2023-03-04T13:05:58.265Z,19.10
2023-03-04T13:08:38.050Z,18.53
2023-03-04T13:11:53.337Z,15.03
2023-03-04T13:14:39.996Z,18.13
2023-03-04T13:17:50.352Z,16.30
2023-03-04T13:20:26.644Z,16.83
2023-03-04T13:22:58.228Z,16.10
2023-03-04T13:25:44.078Z,17.73
2023-03-04T13:28:27.973Z,15.10
2023-03-04T13:31:24.259Z,14.50
2023-03-04T13:34:00.349Z,18.83
2023-03-04T13:36:58.020Z,17.83
2023-03-04T13:39:32.812Z,16.77
2023-03-04T13:42:04.136Z,16.97
2023-03-04T13:45:06.687Z,19.90
2023-03-04T13:47:48.860Z,22.23
2023-03-04T13:50:47.058Z,20.37
2023-03-04T13:53:44.783Z,22.60
2023-03-04T13:56:31.393Z,16.53
2023-03-04T13:59:24.390Z,16.60
2023-03-04T14:02:09.816Z,17.50
2023-03-04T14:04:40.916Z,15.47
2023-03-04T14:07:24.408Z,16.27
2023-03-04T14:10:04.788Z,18.30
2023-03-04T14:12:36.413Z,16.17
2023-03-04T14:15:20.465Z,18.70
2023-03-04T14:17:53.442Z,16.57
2023-03-04T14:20:27.777Z,16.63
2023-03-04T14:22:57.663Z,20.17
2023-03-04T14:25:29.128Z,20.67
2023-03-04T14:28:07.568Z,20.83
2023-03-04T14:30:43.654Z,19.27
2023-03-04T14:33:20.991Z,19.90
2023-03-04T14:35:53.084Z,17.63
2023-03-04T14:38:26.564Z,20.20
2023-03-04T14:41:00.747Z,16.40
2023-03-04T14:43:32.260Z,16.10
2023-03-04T14:46:04.213Z,15.40
2023-03-04T14:48:34.499Z,16.80
2023-03-04T14:51:04.844Z,17.63
2023-03-04T14:53:35.859Z,18.10
2023-03-04T14:56:08.318Z,19.37
2023-03-04T14:58:39.599Z,18.10
2023-03-04T15:01:18.012Z,20.47
2023-03-04T15:03:57.400Z,16.97
2023-03-04T15:06:28.912Z,18.57
2023-03-04T15:09:00.888Z,23.37
2023-03-04T15:11:32.558Z,21.27
2023-03-04T15:14:02.776Z,20.20
2023-03-04T15:16:57.616Z,22.63
2023-03-04T15:19:29.133Z,24.27
2023-03-04T15:22:06.256Z,23.97
2023-03-04T15:24:35.028Z,25.83
2023-03-04T15:27:07.810Z,22.73
2023-03-04T15:29:36.468Z,21.70
2023-03-04T15:32:06.980Z,22.13
2023-03-04T15:34:35.641Z,22.67
2023-03-04T15:37:04.360Z,23.97
2023-03-04T15:39:33.681Z,26.13
2023-03-04T15:42:02.640Z,23.97
2023-03-04T15:44:31.366Z,24.07
2023-03-04T15:47:00.098Z,25.93
2023-03-04T15:49:30.695Z,23.90
2023-03-04T15:51:59.351Z,24.97
2023-03-04T15:54:30.007Z,22.00
2023-03-04T15:57:00.206Z,21.40
2023-03-04T15:59:29.065Z,24.87
2023-03-04T16:01:57.703Z,20.07
2023-03-04T16:04:26.549Z,17.40
2023-03-04T16:06:59.429Z,17.23
2023-03-04T16:09:28.094Z,17.77
2023-03-04T16:12:01.858Z,20.07
2023-03-04T16:14:30.527Z,21.53
2023-03-04T16:16:59.137Z,21.70
2023-03-04T16:19:27.794Z,18.23
2023-03-04T16:21:57.814Z,19.93
2023-03-04T16:24:34.306Z,18.57
2023-03-04T16:27:05.275Z,18.17
2023-03-04T16:29:34.843Z,30.80
2023-03-04T16:32:03.525Z,28.87
2023-03-04T16:34:32.268Z,26.57
2023-03-04T16:37:07.085Z,38.83
2023-03-04T16:39:35.739Z,45.80
2023-03-04T16:42:04.614Z,26.13
2023-03-04T16:44:33.224Z,23.43
2023-03-04T16:47:03.368Z,19.07
2023-03-04T16:49:32.114Z,17.93
2023-03-04T16:52:02.364Z,17.23
2023-03-04T16:54:33.755Z,18.87
2023-03-04T16:57:03.283Z,15.47
2023-03-04T16:59:32.318Z,19.87
2023-03-04T17:02:01.012Z,21.17
2023-03-04T17:04:30.933Z,17.63
2023-03-04T17:07:00.990Z,16.43
2023-03-04T17:09:29.576Z,17.37
2023-03-04T17:11:59.977Z,15.30
2023-03-04T17:14:28.902Z,18.57
2023-03-04T17:16:57.555Z,14.60
2023-03-04T17:19:26.184Z,20.60
2023-03-04T17:21:54.975Z,15.00
2023-03-04T17:24:25.268Z,17.33
2023-03-04T17:26:54.039Z,16.00
2023-03-04T17:29:22.704Z,15.30
2023-03-04T17:31:51.373Z,23.10
2023-03-04T17:34:20.340Z,22.70
2023-03-04T17:36:49.066Z,21.83
2023-03-04T17:39:17.651Z,22.70
2023-03-04T17:41:47.716Z,21.37
2023-03-04T17:44:16.420Z,19.43
2023-03-04T17:46:45.525Z,20.50
2023-03-04T17:49:14.627Z,17.37
2023-03-04T17:51:43.968Z,17.97
2023-03-04T17:54:14.916Z,20.10
2023-03-04T17:56:44.581Z,19.93
2023-03-04T17:59:17.188Z,22.53
2023-03-04T18:01:47.209Z,37.00
2023-03-04T18:04:16.408Z,32.57
2023-03-04T18:06:45.203Z,29.53
2023-03-04T18:09:13.994Z,25.73
2023-03-04T18:11:43.274Z,22.00
2023-03-04T18:14:13.306Z,16.27
2023-03-04T18:16:43.650Z,22.83
2023-03-04T18:19:12.302Z,23.60
2023-03-04T18:21:40.987Z,24.00
2023-03-04T18:24:09.932Z,22.50
2023-03-04T18:26:38.686Z,23.70
2023-03-04T18:29:07.362Z,18.97
2023-03-04T18:31:37.059Z,19.70
2023-03-04T18:34:07.368Z,19.13
2023-03-04T18:36:36.081Z,20.00
2023-03-04T18:39:07.344Z,18.60
2023-03-04T18:41:36.330Z,18.50
2023-03-04T18:44:05.952Z,20.87
2023-03-04T18:46:42.677Z,18.13
2023-03-04T18:49:15.730Z,21.93
2023-03-04T18:51:44.415Z,21.00
2023-03-04T18:54:13.069Z,19.67
2023-03-04T18:56:45.975Z,24.70
2023-03-04T18:59:20.706Z,24.27
2023-03-04T19:01:51.182Z,26.80
2023-03-04T19:04:24.899Z,26.70
2023-03-04T19:06:54.761Z,29.97
2023-03-04T19:09:23.480Z,23.30
2023-03-04T19:11:52.247Z,25.13
2023-03-04T19:14:20.844Z,27.07
2023-03-04T19:16:49.602Z,23.73
2023-03-04T19:19:18.386Z,22.53
2023-03-04T19:21:48.423Z,19.73
2023-03-04T19:24:17.196Z,18.90
2023-03-04T19:26:45.998Z,18.17
2023-03-04T19:29:15.211Z,17.13
2023-03-04T19:31:44.599Z,18.80
2023-03-04T19:34:13.485Z,16.57
2023-03-04T19:36:42.184Z,18.93
2023-03-04T19:39:14.181Z,16.63
2023-03-04T19:41:43.050Z,20.63
2023-03-04T19:44:11.776Z,19.53
2023-03-04T19:46:40.494Z,17.57
2023-03-04T19:49:10.123Z,17.97
2023-03-04T19:51:39.239Z,19.17
2023-03-04T19:54:07.946Z,19.27
2023-03-04T19:56:38.027Z,18.47
2023-03-04T19:59:06.768Z,19.73
2023-03-04T20:01:37.949Z,18.30
2023-03-04T20:04:09.662Z,18.83
2023-03-04T20:06:40.452Z,21.13
2023-03-04T20:09:09.540Z,19.23
2023-03-04T20:11:56.286Z,19.20
2023-03-04T20:14:26.226Z,19.70
2023-03-04T20:16:55.243Z,19.40
2023-03-04T20:19:23.856Z,18.97
2023-03-04T20:21:52.474Z,21.50
2023-03-04T20:24:23.315Z,22.63
2023-03-04T20:26:54.162Z,23.70
2023-03-04T20:29:22.944Z,23.80
2023-03-04T20:31:51.683Z,24.53
2023-03-04T20:34:20.323Z,24.20
2023-03-04T20:36:48.949Z,23.63
2023-03-04T20:39:28.711Z,23.53
2023-03-04T20:42:00.690Z,19.50
2023-03-04T20:44:29.595Z,20.33
2023-03-04T20:46:58.366Z,22.13
2023-03-04T20:49:29.269Z,22.27
2023-03-04T20:52:06.201Z,23.20
2023-03-04T20:54:35.762Z,28.20
2023-03-04T20:57:08.003Z,24.40
2023-03-04T20:59:37.958Z,36.50
2023-03-04T21:02:07.627Z,30.47
2023-03-04T21:04:36.555Z,31.83
2023-03-04T21:07:05.495Z,22.90
2023-03-04T21:09:34.208Z,21.77
2023-03-04T21:12:02.909Z,22.27
2023-03-04T21:14:33.807Z,20.37
2023-03-04T21:17:05.543Z,22.90
2023-03-04T21:19:36.827Z,21.20
2023-03-04T21:22:05.634Z,24.07
2023-03-04T21:24:39.316Z,19.70
2023-03-04T21:27:08.493Z,23.23
2023-03-04T21:29:38.535Z,21.70
2023-03-04T21:32:23.831Z,22.37
2023-03-04T21:34:54.421Z,20.07
2023-03-04T21:37:24.397Z,16.83
2023-03-04T21:39:53.071Z,18.20
2023-03-04T21:42:21.814Z,20.43
2023-03-04T21:44:52.277Z,23.60
2023-03-04T21:47:21.650Z,19.00
2023-03-04T21:49:50.575Z,18.90
2023-03-04T21:52:19.884Z,24.30
2023-03-04T21:54:49.675Z,23.27
2023-03-04T21:57:19.038Z,21.03
2023-03-04T21:59:47.698Z,21.93
2023-03-04T22:02:19.869Z,23.20
2023-03-04T22:04:48.777Z,24.90
2023-03-04T22:07:17.902Z,18.83
2023-03-04T22:09:46.643Z,19.73
2023-03-04T22:12:17.650Z,21.83
2023-03-04T22:14:47.869Z,21.13
2023-03-04T22:17:18.042Z,21.47
2023-03-04T22:19:47.049Z,24.80
2023-03-04T22:22:18.053Z,20.97
2023-03-04T22:24:46.777Z,21.07
2023-03-04T22:27:15.415Z,20.40
2023-03-04T22:29:44.088Z,20.03
2023-03-04T22:32:12.720Z,22.80
2023-03-04T22:34:42.764Z,22.73
2023-03-04T22:37:11.367Z,21.40
2023-03-04T22:39:40.061Z,24.97
2023-03-04T22:42:11.517Z,19.43
2023-03-04T22:44:40.202Z,21.50
2023-03-04T22:47:09.012Z,17.93
2023-03-04T22:49:37.925Z,17.63
2023-03-04T22:52:08.052Z,16.87
2023-03-04T22:54:36.642Z,21.93
2023-03-04T22:57:05.407Z,16.20
2023-03-04T22:59:34.151Z,19.07
2023-03-04T23:02:02.786Z,18.30
2023-03-04T23:04:31.522Z,19.00
2023-03-04T23:07:00.149Z,18.53
2023-03-04T23:09:30.829Z,18.63
2023-03-04T23:11:59.493Z,22.00
2023-03-04T23:14:28.302Z,18.87
2023-03-04T23:16:57.119Z,20.37
2023-03-04T23:19:25.888Z,20.87
2023-03-04T23:21:54.601Z,19.27
2023-03-04T23:24:24.656Z,21.23
2023-03-04T23:26:54.719Z,22.23
2023-03-04T23:29:23.436Z,18.07
2023-03-04T23:31:52.107Z,16.63
2023-03-04T23:34:22.097Z,22.30
2023-03-04T23:36:50.825Z,18.90
2023-03-04T23:39:19.849Z,20.17
2023-03-04T23:41:48.478Z,19.90
2023-03-04T23:44:18.644Z,19.83
2023-03-04T23:46:47.298Z,20.80
2023-03-04T23:49:17.906Z,20.03
2023-03-04T23:51:47.091Z,19.00
2023-03-04T23:54:16.371Z,19.63
2023-03-04T23:56:45.140Z,20.23
2023-03-04T23:59:13.905Z,17.67
